Time;durP1;ratioP1;P1;durP2;ratioP2;P2;SDS_P1;SDS_P2;PMS_P1;PMS_P2;Temp;Humidity;BMP_temperature;BMP_pressure;BME280_temperature;BME280_humidity;BME280_pressure;Samples;Min_cycle;Max_cycle;Signal;HPM_P1;HPM_P2
2021/12/09 00:01:38;;;;;;;28.95;17.45;;;1.10;99.90;;;;;;5077574;28;20492;-90
2021/12/09 00:04:10;;;;;;;27.50;17.52;;;1.10;99.90;;;;;;5077531;28;20484;-91
2021/12/09 00:06:38;;;;;;;29.33;17.17;;;1.10;99.90;;;;;;5077263;28;20138;-90
2021/12/09 00:09:13;;;;;;;43.35;21.35;;;1.10;99.90;;;;;;5077307;28;20118;-90
2021/12/09 00:11:45;;;;;;;48.33;23.52;;;1.10;99.90;;;;;;5077498;28;20467;-90
2021/12/09 00:14:17;;;;;;;30.13;18.73;;;1.00;99.90;;;;;;5077244;28;20054;-90
2021/12/09 00:16:45;;;;;;;29.27;18.30;;;1.00;99.90;;;;;;5076796;28;20105;-91
2021/12/09 00:19:12;;;;;;;29.05;17.92;;;1.00;99.90;;;;;;5077017;28;20071;-90
2021/12/09 00:21:39;;;;;;;29.95;17.80;;;1.10;99.90;;;;;;5076603;28;20091;-90
2021/12/09 00:24:06;;;;;;;27.20;17.45;;;1.10;99.90;;;;;;5077073;28;20139;-90
2021/12/09 00:26:32;;;;;;;32.00;18.23;;;1.10;99.90;;;;;;5076894;28;20048;-90
2021/12/09 00:28:59;;;;;;;29.02;18.33;;;1.10;99.90;;;;;;5076665;28;20138;-90
2021/12/09 00:31:27;;;;;;;32.08;17.98;;;1.10;99.90;;;;;;5076983;28;20058;-90
2021/12/09 00:33:56;;;;;;;37.30;19.13;;;1.10;99.90;;;;;;5076955;28;20135;-91
2021/12/09 00:36:33;;;;;;;28.00;16.75;;;1.00;99.90;;;;;;5076755;28;20135;-91
2021/12/09 00:39:02;;;;;;;27.42;16.95;;;1.00;99.90;;;;;;5076554;28;20063;-90
2021/12/09 00:41:29;;;;;;;33.72;18.27;;;1.00;99.90;;;;;;5076240;28;20566;-90
2021/12/09 00:43:56;;;;;;;44.90;20.73;;;1.10;99.90;;;;;;5076708;28;20547;-91
2021/12/09 00:46:22;;;;;;;34.30;18.17;;;1.10;99.90;;;;;;5076302;28;20040;-91
2021/12/09 00:48:49;;;;;;;30.88;18.08;;;1.10;99.90;;;;;;5076433;28;20135;-91
2021/12/09 00:51:16;;;;;;;28.73;16.58;;;1.10;99.90;;;;;;5076415;28;20050;-91
2021/12/09 00:53:43;;;;;;;32.25;17.90;;;1.10;99.90;;;;;;5076399;28;20048;-91
2021/12/09 00:56:12;;;;;;;32.30;18.50;;;1.10;99.90;;;;;;5076936;28;20055;-91
2021/12/09 00:58:41;;;;;;;42.28;18.40;;;1.20;99.90;;;;;;5076318;28;20544;-91
2021/12/09 01:01:10;;;;;;;37.35;18.65;;;1.00;99.90;;;;;;5076375;28;20058;-91
2021/12/09 01:03:40;;;;;;;34.55;19.08;;;1.00;99.90;;;;;;5078837;28;20063;-91
2021/12/09 01:06:09;;;;;;;33.78;18.10;;;0.90;99.90;;;;;;5076320;28;20245;-90
2021/12/09 01:08:42;;;;;;;32.50;18.70;;;1.00;99.90;;;;;;5076551;28;20488;-91
2021/12/09 01:11:10;;;;;;;50.20;22.48;;;1.00;99.90;;;;;;5076646;28;20059;-89
2021/12/09 01:13:37;;;;;;;27.80;16.88;;;0.90;99.90;;;;;;5085613;28;20056;-90
2021/12/09 01:16:04;;;;;;;29.02;16.98;;;1.00;99.90;;;;;;5076264;28;20048;-90
2021/12/09 01:18:33;;;;;;;31.38;17.00;;;1.10;99.90;;;;;;5076278;28;20051;-90
2021/12/09 01:21:01;;;;;;;33.42;18.63;;;1.10;99.90;;;;;;5075786;28;20404;-90
2021/12/09 01:23:28;;;;;;;28.10;16.02;;;1.10;99.90;;;;;;5075834;28;20047;-90
2021/12/09 01:26:01;;;;;;;25.15;16.58;;;1.20;99.90;;;;;;5076063;28;20048;-89
2021/12/09 01:28:31;;;;;;;24.30;15.43;;;1.20;99.90;;;;;;5076069;28;20048;-89
2021/12/09 01:31:04;;;;;;;36.63;18.60;;;1.20;99.90;;;;;;5076148;28;20447;-89
2021/12/09 01:33:32;;;;;;;29.52;17.33;;;1.10;99.90;;;;;;5075583;28;20139;-87
2021/12/09 01:35:59;;;;;;;28.65;16.33;;;1.00;99.90;;;;;;5075995;28;20130;-88
2021/12/09 01:38:30;;;;;;;26.30;16.38;;;1.00;99.90;;;;;;5075977;28;20040;-89
2021/12/09 01:40:59;;;;;;;32.28;17.35;;;1.10;99.90;;;;;;5075695;28;20059;-88
2021/12/09 01:43:26;;;;;;;35.05;19.02;;;1.10;99.90;;;;;;5075687;28;20044;-88
2021/12/09 01:46:09;;;;;;;35.80;18.98;;;0.90;99.90;;;;;;5075259;28;20135;-88
2021/12/09 01:48:37;;;;;;;32.78;18.63;;;0.90;99.90;;;;;;5075505;28;20079;-88
2021/12/09 01:51:05;;;;;;;35.20;19.23;;;0.90;99.90;;;;;;5075515;28;20044;-88
2021/12/09 01:53:33;;;;;;;33.28;17.85;;;1.00;99.90;;;;;;5075786;28;20147;-89
2021/12/09 01:56:04;;;;;;;27.42;17.15;;;1.00;99.90;;;;;;5075648;28;20484;-87
2021/12/09 01:58:32;;;;;;;29.38;16.73;;;1.00;99.90;;;;;;5075521;28;20048;-88
2021/12/09 02:01:00;;;;;;;34.10;18.15;;;1.10;99.90;;;;;;5075380;28;20059;-87
2021/12/09 02:03:27;;;;;;;31.67;17.45;;;1.20;99.90;;;;;;5075867;28;20060;-87
2021/12/09 02:05:54;;;;;;;25.17;16.10;;;1.20;99.90;;;;;;5076834;28;20439;-87
2021/12/09 02:08:22;;;;;;;27.17;16.40;;;1.20;99.90;;;;;;5079608;28;20048;-87
2021/12/09 02:10:49;;;;;;;29.10;16.70;;;1.20;99.90;;;;;;5079436;28;20130;-87
2021/12/09 02:13:17;;;;;;;25.40;15.10;;;1.30;99.90;;;;;;5078640;28;20113;-87
2021/12/09 02:15:45;;;;;;;30.52;17.08;;;1.30;99.90;;;;;;5078666;28;20048;-87
2021/12/09 02:18:13;;;;;;;29.50;16.90;;;1.30;99.90;;;;;;5078848;28;20109;-87
2021/12/09 02:20:41;;;;;;;29.55;16.77;;;1.20;99.90;;;;;;5078922;28;20482;-87
2021/12/09 02:23:11;;;;;;;40.50;18.85;;;1.20;99.90;;;;;;5079095;28;20047;-86
2021/12/09 02:25:44;;;;;;;27.65;16.33;;;1.00;99.90;;;;;;5079147;28;20043;-86
2021/12/09 02:28:14;;;;;;;27.08;16.05;;;1.20;99.90;;;;;;5084135;28;20473;-87
2021/12/09 02:30:41;;;;;;;28.55;16.05;;;1.20;99.90;;;;;;5081910;28;20071;-86
2021/12/09 02:33:08;;;;;;;25.77;16.00;;;1.30;99.90;;;;;;5078932;28;20054;-86
2021/12/09 02:35:37;;;;;;;26.63;14.88;;;1.30;99.90;;;;;;5079046;28;20452;-86
2021/12/09 02:38:05;;;;;;;26.27;15.13;;;1.30;99.90;;;;;;5078904;28;20059;-86
2021/12/09 02:40:33;;;;;;;24.88;15.57;;;1.30;99.90;;;;;;5078773;28;20134;-86
2021/12/09 02:43:02;;;;;;;24.95;15.43;;;1.30;99.90;;;;;;5078584;28;20051;-86
2021/12/09 02:45:29;;;;;;;24.00;15.45;;;1.30;99.90;;;;;;5078756;28;20048;-86
2021/12/09 02:47:55;;;;;;;24.50;15.50;;;1.30;99.90;;;;;;5078509;28;20419;-86
2021/12/09 02:50:22;;;;;;;23.05;15.55;;;1.30;99.90;;;;;;5078361;28;20508;-86
2021/12/09 02:52:49;;;;;;;23.40;14.43;;;1.20;99.90;;;;;;5078253;28;20056;-86
2021/12/09 02:55:16;;;;;;;23.73;15.07;;;1.20;99.90;;;;;;5078342;28;20046;-86
2021/12/09 02:57:43;;;;;;;21.02;14.45;;;1.30;99.90;;;;;;5078273;28;20487;-86
2021/12/09 03:00:11;;;;;;;26.85;15.23;;;1.20;99.90;;;;;;5078290;28;20399;-86
2021/12/09 03:02:37;;;;;;;23.27;14.30;;;1.20;99.90;;;;;;5078208;28;20052;-85
2021/12/09 03:05:05;;;;;;;33.25;16.80;;;1.20;99.90;;;;;;5077785;28;20054;-86
2021/12/09 03:07:37;;;;;;;22.80;14.00;;;1.20;99.90;;;;;;5077870;28;20051;-86
2021/12/09 03:10:18;;;;;;;31.77;16.70;;;1.20;99.90;;;;;;5077918;28;20119;-86
2021/12/09 03:12:48;;;;;;;22.45;14.77;;;1.20;99.90;;;;;;5078226;28;20055;-85
2021/12/09 03:15:16;;;;;;;22.67;14.80;;;1.30;99.90;;;;;;5077799;28;20040;-85
2021/12/09 03:17:43;;;;;;;25.42;15.98;;;1.30;99.90;;;;;;5076659;28;20052;-86
2021/12/09 03:20:11;;;;;;;30.48;16.08;;;1.30;99.90;;;;;;5077738;28;20062;-85
2021/12/09 03:22:39;;;;;;;27.63;15.80;;;1.30;99.90;;;;;;5077862;28;20131;-85
2021/12/09 03:25:09;;;;;;;20.00;13.63;;;1.30;99.90;;;;;;5077643;28;20054;-86
2021/12/09 03:27:35;;;;;;;22.92;13.95;;;1.30;99.90;;;;;;5077639;28;20497;-85
2021/12/09 03:30:06;;;;;;;22.13;14.45;;;1.20;99.90;;;;;;5077644;28;20044;-86
2021/12/09 03:32:32;;;;;;;27.17;14.93;;;1.30;99.90;;;;;;5077829;28;20424;-85
2021/12/09 03:34:59;;;;;;;20.45;14.05;;;1.30;99.90;;;;;;5077511;28;20058;-85
2021/12/09 03:37:27;;;;;;;23.25;14.60;;;1.30;99.90;;;;;;5077511;28;20506;-85
2021/12/09 03:39:55;;;;;;;22.08;13.98;;;1.30;99.90;;;;;;5077307;28;20044;-85
2021/12/09 03:42:25;;;;;;;24.98;14.10;;;1.30;99.90;;;;;;5077278;28;20043;-85
2021/12/09 03:44:53;;;;;;;28.83;14.77;;;1.20;99.90;;;;;;5086932;28;20535;-86
2021/12/09 03:47:23;;;;;;;19.27;12.88;;;1.20;99.90;;;;;;5077284;28;20048;-85
2021/12/09 03:49:50;;;;;;;24.45;14.68;;;1.20;99.90;;;;;;5077280;28;20484;-85
2021/12/09 03:52:17;;;;;;;31.25;15.93;;;1.30;99.90;;;;;;5076880;28;20048;-85
2021/12/09 03:54:45;;;;;;;21.98;13.50;;;1.20;99.90;;;;;;5077006;28;20048;-85
2021/12/09 03:57:13;;;;;;;25.10;14.48;;;1.20;99.90;;;;;;5076704;28;20136;-84
2021/12/09 03:59:41;;;;;;;25.35;14.40;;;1.30;99.90;;;;;;5076831;28;20052;-86
2021/12/09 04:02:09;;;;;;;21.02;13.88;;;1.30;99.90;;;;;;5076792;28;20048;-85
2021/12/09 04:04:37;;;;;;;22.08;13.43;;;1.30;99.90;;;;;;5076773;28;20484;-85
2021/12/09 04:07:04;;;;;;;24.75;14.45;;;1.30;99.90;;;;;;5076392;28;20563;-85
2021/12/09 04:09:31;;;;;;;21.13;13.10;;;1.30;99.90;;;;;;5076503;28;20142;-85
2021/12/09 04:11:58;;;;;;;19.73;12.82;;;1.30;99.90;;;;;;5076429;28;20134;-85
2021/12/09 04:14:25;;;;;;;24.67;13.35;;;1.30;99.90;;;;;;5076546;28;20492;-85
2021/12/09 04:16:52;;;;;;;20.75;13.07;;;1.30;99.90;;;;;;5076366;28;20411;-84
2021/12/09 04:19:19;;;;;;;19.58;12.32;;;1.30;99.90;;;;;;5076369;28;20147;-85
2021/12/09 04:21:46;;;;;;;18.35;12.68;;;1.30;99.90;;;;;;5076112;28;20060;-84
2021/12/09 04:24:15;;;;;;;24.13;14.65;;;1.30;99.90;;;;;;5075991;28;20048;-85
2021/12/09 04:26:47;;;;;;;26.88;14.65;;;1.40;99.90;;;;;;5094102;28;20050;-85
2021/12/09 04:29:14;;;;;;;31.52;16.35;;;1.30;99.90;;;;;;5093317;28;20054;-84
2021/12/09 04:31:42;;;;;;;23.80;14.30;;;1.20;99.90;;;;;;5076224;28;20091;-85
2021/12/09 04:34:09;;;;;;;24.25;14.65;;;1.20;99.90;;;;;;5076253;28;20488;-85
2021/12/09 04:36:38;;;;;;;29.23;15.55;;;1.20;99.90;;;;;;5076046;28;20050;-84
2021/12/09 04:39:06;;;;;;;25.27;14.30;;;1.20;99.90;;;;;;5075873;28;20069;-84
2021/12/09 04:41:33;;;;;;;26.70;15.30;;;1.30;99.90;;;;;;5075614;28;20077;-85
2021/12/09 04:44:00;;;;;;;24.15;13.23;;;1.30;99.90;;;;;;5075866;28;20321;-85
2021/12/09 04:46:26;;;;;;;28.63;15.18;;;1.30;99.90;;;;;;5075721;28;20052;-85
2021/12/09 04:48:53;;;;;;;22.35;13.65;;;1.20;99.90;;;;;;5075600;28;20048;-84
2021/12/09 04:51:20;;;;;;;18.40;12.70;;;1.30;99.90;;;;;;5075584;28;20055;-84
2021/12/09 04:53:47;;;;;;;21.80;13.52;;;1.30;99.90;;;;;;5075738;28;20056;-84
2021/12/09 04:56:14;;;;;;;22.17;13.63;;;1.40;99.90;;;;;;5075718;28;20070;-84
2021/12/09 04:58:40;;;;;;;23.70;14.00;;;1.40;99.90;;;;;;5076287;28;20074;-85
2021/12/09 05:01:08;;;;;;;42.67;17.45;;;1.40;99.90;;;;;;5081100;28;20052;-84
2021/12/09 05:03:35;;;;;;;32.20;15.45;;;1.40;99.90;;;;;;5075562;28;20108;-84
2021/12/09 05:06:02;;;;;;;31.80;16.52;;;1.30;99.90;;;;;;5093687;28;20487;-85
2021/12/09 05:08:32;;;;;;;21.30;13.23;;;1.20;99.90;;;;;;5075595;28;20075;-84
2021/12/09 05:13:34;;;;;;;25.23;13.57;;;1.20;99.90;;;;;;5093375;28;20139;-84
2021/12/09 05:16:02;;;;;;;26.42;14.55;;;1.20;99.90;;;;;;5075498;28;20127;-85
2021/12/09 05:18:32;;;;;;;23.30;14.27;;;1.30;99.90;;;;;;5075094;28;20052;-84
2021/12/09 05:21:01;;;;;;;48.40;19.48;;;1.40;99.90;;;;;;5075482;28;20044;-84
2021/12/09 05:23:27;;;;;;;29.30;15.93;;;1.30;99.90;;;;;;5075290;28;20381;-84
2021/12/09 05:25:54;;;;;;;32.75;17.05;;;1.30;99.90;;;;;;5074082;28;20406;-84
2021/12/09 05:28:30;;;;;;;29.30;15.38;;;1.30;99.90;;;;;;5075204;28;20054;-82
2021/12/09 05:33:43;;;;;;;31.40;15.73;;;1.30;99.90;;;;;;5093068;28;20054;-84
2021/12/09 05:36:10;;;;;;;37.03;18.08;;;1.30;99.90;;;;;;5075005;28;20048;-84
2021/12/09 05:38:37;;;;;;;20.80;13.73;;;1.20;99.90;;;;;;5075166;28;20060;-84
2021/12/09 05:41:05;;;;;;;22.50;13.48;;;1.30;99.90;;;;;;5076530;28;20071;-84
2021/12/09 05:43:33;;;;;;;17.35;11.82;;;1.30;99.90;;;;;;5096875;28;20048;-84
2021/12/09 05:46:00;;;;;;;23.95;13.57;;;1.40;99.90;;;;;;5079204;28;20050;-85
2021/12/09 05:48:27;;;;;;;28.48;14.65;;;1.40;99.90;;;;;;5080189;28;20051;-85
2021/12/09 05:50:54;;;;;;;40.40;19.02;;;1.50;99.90;;;;;;5097174;28;20400;-85
2021/12/09 05:53:20;;;;;;;23.88;15.85;;;1.40;99.90;;;;;;5096642;28;20087;-84
2021/12/09 05:55:48;;;;;;;49.15;20.77;;;1.40;99.90;;;;;;5077361;28;20044;-84
2021/12/09 05:58:17;;;;;;;29.98;15.38;;;1.30;99.90;;;;;;5078744;28;20082;-84
2021/12/09 06:00:49;;;;;;;30.60;15.43;;;1.40;99.90;;;;;;5079021;28;20055;-84
2021/12/09 06:03:19;;;;;;;32.63;19.33;;;1.50;99.90;;;;;;5078676;28;20106;-83
2021/12/09 06:05:47;;;;;;;26.63;16.98;;;1.40;99.90;;;;;;5096711;28;20048;-84
2021/12/09 06:08:14;;;;;;;33.33;16.42;;;1.50;99.90;;;;;;5078491;28;20051;-84
2021/12/09 06:10:41;;;;;;;37.97;20.67;;;1.50;99.90;;;;;;5078738;28;20040;-84
2021/12/09 06:13:08;;;;;;;39.40;21.42;;;1.40;99.90;;;;;;5078322;28;20056;-84
2021/12/09 06:15:34;;;;;;;27.15;16.73;;;1.40;99.90;;;;;;5103546;28;20107;-84
2021/12/09 06:18:01;;;;;;;21.20;14.48;;;1.40;99.90;;;;;;5082447;28;20415;-84
2021/12/09 06:20:28;;;;;;;49.22;25.55;;;1.40;99.90;;;;;;5096326;28;20059;-84
2021/12/09 06:22:55;;;;;;;25.50;17.38;;;1.40;99.90;;;;;;5096360;28;20046;-84
2021/12/09 06:25:22;;;;;;;24.15;14.63;;;1.40;99.90;;;;;;5078419;28;20048;-84
2021/12/09 06:27:50;;;;;;;50.78;32.30;;;1.40;99.90;;;;;;5077964;28;20056;-84
2021/12/09 06:30:18;;;;;;;25.85;15.02;;;1.40;99.90;;;;;;5096025;28;20044;-84
2021/12/09 06:32:45;;;;;;;20.63;14.10;;;1.40;99.90;;;;;;5078086;28;20555;-84
2021/12/09 06:35:12;;;;;;;27.88;14.68;;;1.40;99.90;;;;;;5095976;28;20056;-84
2021/12/09 06:37:43;;;;;;;21.35;13.00;;;1.40;99.90;;;;;;5096187;28;20051;-84
2021/12/09 06:40:13;;;;;;;23.42;13.52;;;1.50;99.90;;;;;;5078039;28;20084;-83
2021/12/09 06:42:42;;;;;;;27.88;15.45;;;1.50;99.90;;;;;;5096080;28;20415;-84
2021/12/09 06:45:10;;;;;;;20.63;12.90;;;1.50;99.90;;;;;;5095817;28;20135;-84
2021/12/09 06:47:37;;;;;;;22.52;13.55;;;1.50;99.90;;;;;;5078157;28;20122;-84
2021/12/09 06:50:07;;;;;;;26.70;15.50;;;1.50;99.90;;;;;;5078124;28;20075;-84
2021/12/09 06:52:33;;;;;;;28.67;16.70;;;1.50;99.90;;;;;;5095333;28;20142;-84
2021/12/09 06:55:04;;;;;;;27.42;17.40;;;1.60;99.90;;;;;;5095621;28;20054;-84
2021/12/09 06:57:31;;;;;;;26.90;16.25;;;1.60;99.90;;;;;;5077459;28;20492;-84
2021/12/09 06:59:58;;;;;;;30.58;17.92;;;1.60;99.90;;;;;;5088863;28;20411;-85
2021/12/09 07:02:25;;;;;;;42.70;21.23;;;1.60;99.90;;;;;;5076096;28;20056;-84
2021/12/09 07:04:52;;;;;;;88.18;45.83;;;1.40;99.90;;;;;;5064946;28;20047;-84
2021/12/09 07:07:19;;;;;;;43.47;24.52;;;1.30;99.90;;;;;;5095230;28;20067;-84
2021/12/09 07:09:46;;;;;;;62.75;34.65;;;1.30;99.90;;;;;;5095428;28;20048;-84
2021/12/09 07:12:12;;;;;;;49.55;29.92;;;1.20;99.90;;;;;;5095408;28;20143;-84
2021/12/09 07:14:40;;;;;;;63.70;35.55;;;1.30;99.90;;;;;;5077498;28;20696;-84
2021/12/09 07:17:07;;;;;;;49.20;31.20;;;1.30;99.90;;;;;;5095228;28;20113;-84
2021/12/09 07:19:35;;;;;;;67.60;37.55;;;1.40;99.90;;;;;;5094851;28;20125;-85
2021/12/09 07:22:04;;;;;;;39.63;20.90;;;1.40;99.90;;;;;;5077097;28;20052;-84
2021/12/09 07:24:31;;;;;;;40.05;20.02;;;1.40;99.90;;;;;;5077540;28;20089;-84
2021/12/09 07:26:58;;;;;;;26.77;16.30;;;1.40;99.90;;;;;;5077355;28;20051;-85
2021/12/09 07:29:25;;;;;;;21.60;14.43;;;1.40;99.90;;;;;;5077604;28;20063;-86
2021/12/09 07:31:52;;;;;;;29.40;16.55;;;1.50;99.90;;;;;;5081089;28;20050;-86
2021/12/09 07:34:19;;;;;;;20.98;14.27;;;1.40;99.90;;;;;;5090344;28;20461;-86
2021/12/09 07:36:46;;;;;;;21.70;14.18;;;1.40;99.90;;;;;;5077397;28;20498;-85
2021/12/09 07:39:13;;;;;;;22.00;13.55;;;1.40;99.90;;;;;;5095109;28;20050;-85
2021/12/09 07:41:40;;;;;;;27.67;14.98;;;1.50;99.90;;;;;;5077508;28;20090;-86
2021/12/09 07:44:07;;;;;;;21.48;13.10;;;1.50;99.90;;;;;;5094978;28;20052;-85
2021/12/09 07:46:35;;;;;;;22.35;15.27;;;1.50;99.90;;;;;;5094859;28;20048;-85
2021/12/09 07:49:02;;;;;;;23.05;13.75;;;1.60;99.90;;;;;;5094974;28;20389;-85
2021/12/09 07:51:29;;;;;;;28.27;13.93;;;1.60;99.90;;;;;;5077089;28;20052;-86
2021/12/09 07:53:55;;;;;;;23.08;15.32;;;1.70;99.90;;;;;;5094957;28;20421;-85
2021/12/09 07:56:22;;;;;;;28.02;16.42;;;1.70;99.90;;;;;;5076973;28;20048;-85
2021/12/09 07:58:49;;;;;;;28.25;17.92;;;1.80;99.90;;;;;;5077059;28;20087;-86
2021/12/09 08:01:15;;;;;;;35.05;17.10;;;1.80;99.90;;;;;;5094441;28;20044;-85
2021/12/09 08:03:42;;;;;;;29.83;16.67;;;1.80;99.90;;;;;;5093962;28;20135;-85
2021/12/09 08:06:09;;;;;;;25.63;16.95;;;1.80;99.90;;;;;;5094672;28;20044;-86
2021/12/09 08:08:36;;;;;;;32.03;21.00;;;1.80;99.90;;;;;;5094743;28;20056;-85
2021/12/09 08:11:03;;;;;;;29.70;18.98;;;1.80;99.90;;;;;;5094464;28;20047;-86
2021/12/09 08:13:31;;;;;;;26.55;17.23;;;1.80;99.90;;;;;;5076789;28;20488;-86
2021/12/09 08:15:58;;;;;;;20.13;14.02;;;1.70;99.90;;;;;;5076866;28;20040;-86
2021/12/09 08:18:27;;;;;;;24.20;14.30;;;1.80;99.90;;;;;;5094286;28;20046;-86
2021/12/09 08:21:02;;;;;;;18.73;13.05;;;1.80;99.90;;;;;;5076429;28;20411;-86
2021/12/09 08:23:29;;;;;;;24.25;14.80;;;1.80;99.90;;;;;;5072042;28;20143;-86
2021/12/09 08:25:57;;;;;;;22.27;13.52;;;1.80;99.90;;;;;;5076265;28;20101;-85
2021/12/09 08:28:24;;;;;;;17.50;12.68;;;1.80;99.90;;;;;;5076127;28;20411;-86
2021/12/09 08:30:52;;;;;;;24.10;12.18;;;1.80;99.90;;;;;;5093913;28;20048;-85
2021/12/09 08:33:21;;;;;;;27.65;14.40;;;1.70;99.90;;;;;;5076079;28;20082;-86
2021/12/09 08:35:48;;;;;;;21.73;12.50;;;1.70;99.90;;;;;;5094326;28;20044;-85
2021/12/09 08:38:16;;;;;;;18.67;11.73;;;1.70;99.90;;;;;;5076285;28;20131;-86
2021/12/09 08:40:43;;;;;;;19.40;12.80;;;1.70;99.90;;;;;;5093843;28;20139;-85
2021/12/09 08:43:11;;;;;;;20.15;12.85;;;1.70;99.90;;;;;;5093794;28;20508;-85
2021/12/09 08:45:38;;;;;;;28.42;16.00;;;1.70;99.90;;;;;;5076158;28;20491;-86
2021/12/09 08:48:05;;;;;;;23.42;14.93;;;1.70;99.90;;;;;;5097444;28;20048;-86
2021/12/09 08:50:33;;;;;;;21.23;14.77;;;1.80;99.90;;;;;;5090545;28;20150;-85
2021/12/09 08:53:07;;;;;;;25.88;15.23;;;1.90;99.90;;;;;;5075814;28;20498;-86
2021/12/09 08:55:35;;;;;;;26.85;15.52;;;2.00;99.90;;;;;;5093760;28;20110;-86
2021/12/09 08:58:02;;;;;;;26.13;14.30;;;1.90;99.90;;;;;;5076004;28;20048;-85
2021/12/09 09:00:30;;;;;;;31.13;15.48;;;1.90;99.90;;;;;;5094020;28;20134;-86
2021/12/09 09:02:58;;;;;;;22.75;14.13;;;1.80;99.90;;;;;;5075839;28;20054;-86
2021/12/09 09:05:25;;;;;;;24.30;14.75;;;1.90;99.90;;;;;;5075963;28;20095;-85
2021/12/09 09:07:52;;;;;;;25.08;16.33;;;2.00;99.90;;;;;;5093554;28;20051;-86
2021/12/09 09:10:23;;;;;;;25.13;15.13;;;2.20;99.90;;;;;;5075318;28;20052;-86
2021/12/09 09:12:51;;;;;;;31.73;18.80;;;2.30;99.90;;;;;;5075610;28;20131;-86
2021/12/09 09:15:20;;;;;;;29.55;17.45;;;2.30;99.90;;;;;;5075676;28;20076;-86
2021/12/09 09:17:47;;;;;;;28.90;18.35;;;2.40;99.90;;;;;;5093378;28;20056;-86
2021/12/09 09:20:16;;;;;;;34.72;22.75;;;2.30;99.90;;;;;;5075465;28;20055;-85
2021/12/09 09:22:44;;;;;;;31.70;22.10;;;2.50;99.90;;;;;;5093188;28;20101;-86
2021/12/09 09:25:17;;;;;;;37.65;25.42;;;2.60;99.90;;;;;;5075431;28;20127;-86
2021/12/09 09:27:45;;;;;;;46.20;30.25;;;2.70;99.90;;;;;;5092154;28;20047;-86
2021/12/09 09:30:17;;;;;;;45.65;30.60;;;2.80;99.90;;;;;;5075096;28;20589;-85
2021/12/09 09:32:49;;;;;;;43.50;29.55;;;2.90;99.90;;;;;;5093011;28;20079;-85
2021/12/09 09:35:17;;;;;;;34.55;23.08;;;3.00;99.90;;;;;;5075271;28;20431;-85
2021/12/09 09:37:45;;;;;;;27.27;19.77;;;3.00;99.90;;;;;;5092989;28;20132;-85
2021/12/09 09:40:16;;;;;;;30.63;21.13;;;3.10;99.90;;;;;;5092796;28;20058;-86
2021/12/09 09:45:14;;;;;;;39.97;22.88;;;3.10;99.90;;;;;;5092939;28;20415;-85
2021/12/09 09:47:41;;;;;;;35.47;23.15;;;3.00;99.90;;;;;;5075097;28;20552;-85
2021/12/09 09:50:10;;;;;;;38.13;24.02;;;3.00;99.90;;;;;;5074925;28;20048;-85
2021/12/09 09:52:38;;;;;;;35.78;23.48;;;3.10;99.90;;;;;;5091639;28;20055;-84
2021/12/09 09:55:09;;;;;;;53.08;29.55;;;3.10;99.90;;;;;;5092301;28;20050;-85
2021/12/09 09:57:37;;;;;;;37.25;23.70;;;3.10;99.90;;;;;;5075194;28;20094;-86
2021/12/09 10:00:08;;;;;;;40.05;23.00;;;3.10;99.90;;;;;;5074666;28;20040;-86
2021/12/09 10:02:36;;;;;;;47.92;27.58;;;3.00;99.90;;;;;;5091836;28;20499;-85
2021/12/09 10:05:06;;;;;;;30.85;20.98;;;3.10;99.90;;;;;;5101944;28;20044;-86
2021/12/09 10:07:34;;;;;;;34.03;22.13;;;3.10;99.90;;;;;;5079128;28;20079;-85
2021/12/09 10:10:03;;;;;;;35.50;20.58;;;3.20;99.90;;;;;;5092665;28;20048;-85
2021/12/09 10:12:30;;;;;;;32.85;19.05;;;3.20;99.90;;;;;;5074474;28;20058;-86
2021/12/09 10:14:57;;;;;;;27.13;18.98;;;3.20;99.90;;;;;;5074641;28;20059;-85
2021/12/09 10:17:26;;;;;;;25.23;17.63;;;3.20;99.90;;;;;;5074692;28;20051;-85
2021/12/09 10:20:09;;;;;;;26.77;17.65;;;3.20;99.90;;;;;;5091928;28;20127;-85
2021/12/09 10:22:37;;;;;;;27.67;18.65;;;3.30;99.90;;;;;;5075061;28;20047;-86
2021/12/09 10:25:20;;;;;;;30.38;18.02;;;3.50;99.90;;;;;;5092213;28;20066;-86
2021/12/09 10:27:58;;;;;;;28.55;17.48;;;3.60;99.90;;;;;;5077400;28;20156;-86
2021/12/09 10:30:25;;;;;;;37.67;20.02;;;3.70;99.90;;;;;;5078138;28;20059;-86
2021/12/09 10:33:01;;;;;;;27.02;16.83;;;3.90;99.90;;;;;;5078017;28;20040;-85
2021/12/09 10:35:28;;;;;;;30.23;19.25;;;3.90;99.90;;;;;;5078505;28;20075;-86
2021/12/09 10:37:55;;;;;;;31.88;20.63;;;3.90;99.90;;;;;;5078527;28;20052;-86
2021/12/09 10:40:27;;;;;;;22.00;16.27;;;3.90;99.90;;;;;;5096228;28;20102;-86
2021/12/09 10:42:56;;;;;;;25.55;16.83;;;3.80;99.90;;;;;;5078307;28;20047;-87
2021/12/09 10:45:28;;;;;;;29.17;16.63;;;3.80;99.90;;;;;;5077889;28;20495;-86
2021/12/09 10:48:01;;;;;;;31.08;16.42;;;3.90;99.90;;;;;;5078023;28;20045;-86
2021/12/09 10:50:44;;;;;;;31.90;18.05;;;3.80;99.90;;;;;;5077894;28;20095;-86
2021/12/09 10:55:47;;;;;;;38.17;22.38;;;3.60;99.90;;;;;;5095922;28;20090;-86
2021/12/09 10:58:18;;;;;;;36.25;21.60;;;3.60;99.90;;;;;;5077945;28;20052;-86
2021/12/09 11:00:57;;;;;;;37.45;23.20;;;3.50;99.90;;;;;;5077688;28;20066;-85
2021/12/09 11:03:40;;;;;;;43.10;24.15;;;3.60;99.90;;;;;;5095506;28;20052;-86
2021/12/09 11:06:16;;;;;;;34.65;22.88;;;3.80;99.90;;;;;;5078045;28;20109;-86
2021/12/09 11:08:52;;;;;;;36.80;23.25;;;3.90;99.90;;;;;;5077647;28;20048;-86
2021/12/09 11:11:28;;;;;;;36.80;22.13;;;4.00;99.90;;;;;;5077591;28;20058;-86
2021/12/09 11:13:56;;;;;;;35.30;21.58;;;4.10;99.90;;;;;;5095596;28;20562;-87
2021/12/09 11:16:28;;;;;;;35.38;20.80;;;4.00;99.90;;;;;;5077715;28;20575;-86
2021/12/09 11:19:20;;;;;;;36.72;22.70;;;4.00;99.90;;;;;;5077702;28;20130;-86
2021/12/09 11:21:58;;;;;;;33.38;21.55;;;4.00;99.90;;;;;;5087533;28;20088;-87
2021/12/09 11:24:30;;;;;;;34.20;20.85;;;4.30;99.90;;;;;;5077559;28;20060;-86
2021/12/09 11:27:02;;;;;;;30.80;19.63;;;4.30;99.90;;;;;;5076409;28;20561;-86
2021/12/09 11:29:42;;;;;;;26.05;18.88;;;4.30;99.90;;;;;;5076145;28;20058;-86
2021/12/09 11:32:49;;;;;;;23.17;16.42;;;4.40;99.90;;;;;;5076877;28;20048;-87
2021/12/09 11:35:26;;;;;;;20.92;15.65;;;4.50;99.90;;;;;;5093143;28;20079;-86
2021/12/09 11:38:04;;;;;;;27.75;16.83;;;4.70;99.90;;;;;;5092665;28;20518;-86
2021/12/09 11:40:49;;;;;;;25.95;16.88;;;4.80;99.90;;;;;;5075851;28;20098;-87
2021/12/09 11:43:24;;;;;;;22.83;15.60;;;4.90;99.90;;;;;;5076339;28;20438;-86
2021/12/09 11:45:53;;;;;;;22.52;15.50;;;5.10;99.90;;;;;;5094119;28;20058;-87
2021/12/09 11:48:20;;;;;;;22.15;14.68;;;5.20;99.90;;;;;;5075808;28;20044;-87
2021/12/09 11:50:53;;;;;;;28.27;16.20;;;5.30;99.90;;;;;;5075886;28;20065;-87
2021/12/09 11:53:24;;;;;;;20.27;14.93;;;5.30;99.90;;;;;;5076144;28;20105;-87
2021/12/09 11:56:09;;;;;;;24.27;15.30;;;5.30;99.90;;;;;;5093533;28;20800;-87
2021/12/09 11:58:54;;;;;;;17.67;11.77;;;5.30;99.90;;;;;;5093632;28;20055;-87
2021/12/09 12:07:31;;;;;;;18.25;12.95;;;5.40;99.90;;;;;;5093482;28;20411;-87
2021/12/09 12:13:08;;;;;;;16.52;12.82;;;5.50;99.90;;;;;;5093390;28;20138;-86
2021/12/09 12:24:15;;;;;;;63.92;37.22;;;5.00;99.90;;;;;;5094749;28;20047;-87
2021/12/09 12:38:18;;;;;;;43.70;29.42;;;4.70;99.90;;;;;;5107961;28;20075;-87
2021/12/09 12:40:42;;;;;;;49.83;34.97;;;4.90;99.90;;;;;;5094798;28;20060;-87
2021/12/09 12:43:22;;;;;;;36.05;22.63;;;4.60;99.90;;;;;;5076704;28;20050;-88
2021/12/09 12:46:08;;;;;;;77.50;49.70;;;4.60;99.90;;;;;;5076881;28;20054;-87
2021/12/09 12:51:45;;;;;;;36.55;23.60;;;4.80;99.90;;;;;;5094210;28;20081;-88
2021/12/09 12:54:15;;;;;;;25.05;17.90;;;4.80;99.90;;;;;;5076518;28;20054;-88
2021/12/09 12:56:47;;;;;;;48.92;27.23;;;4.50;99.90;;;;;;5094416;28;20050;-88
2021/12/09 12:59:19;;;;;;;27.55;19.05;;;4.60;99.90;;;;;;5076548;28;20108;-88
2021/12/09 13:02:11;;;;;;;41.65;25.60;;;4.40;99.90;;;;;;5094326;28;20127;-88
2021/12/09 13:05:10;;;;;;;29.33;18.42;;;4.50;99.90;;;;;;5076537;28;20155;-88
2021/12/09 13:19:06;;;;;;;46.88;28.35;;;4.20;99.90;;;;;;5093784;28;20048;-88
2021/12/09 13:21:38;;;;;;;38.58;23.67;;;4.20;99.90;;;;;;5076072;28;20151;-88
2021/12/09 13:24:30;;;;;;;24.08;16.85;;;4.30;99.90;;;;;;5076068;28;20163;-88
2021/12/09 13:27:47;;;;;;;24.98;15.68;;;4.40;99.90;;;;;;5094141;28;20476;-88
2021/12/09 13:33:46;;;;;;;26.15;15.90;;;4.10;99.90;;;;;;5059745;28;20051;-88
2021/12/09 13:36:30;;;;;;;25.42;15.18;;;4.00;99.90;;;;;;5093565;28;20044;-88
2021/12/09 13:39:27;;;;;;;;;;;4.10;99.90;;;;;;5076411;28;20087;-88
2021/12/09 13:55:29;;;;;;;22.00;15.13;;;4.10;99.90;;;;;;5085402;28;20059;-88
2021/12/09 13:58:01;;;;;;;23.35;14.95;;;4.10;99.90;;;;;;5055935;28;20131;-89
2021/12/09 14:00:34;;;;;;;22.33;14.88;;;3.90;99.90;;;;;;5055540;28;20058;-89
2021/12/09 14:03:11;;;;;;;27.13;15.40;;;3.80;99.90;;;;;;5058782;28;20071;-88